Aérodrome :
LOGIN :

S'inscrire | Disclaimer

   EN    FR    IT 

 










Légende :    VFR   VFR Marginal   IFR   IFR Intensif   IFR Très Intensif
Visi : 
Plafond : 
>= 8 km
>= 3000ft
5 à 8 km
1000 à 3000 ft
1500m à 5 km
500 à 1000 ft
800 à 1500m
200 à 500 ft
< 800m
< 200 ft
Symboles :   Orages  Brouillard  Fortes neiges  Fortes précipitations  Vent > 20 kt
SIGMETs :   Divers  Orages  Givrage  Turbulence  Onde Orograph.  Cendres Volcan.






- Altitude de l'aérodrome : 1260 ft
- Code IATA : LDE


LFBT - Tarbes / Ossun

DERNIER METAR :
  • 140430Z AUTO 00000KT 9999 OVC023 17/15 Q1019 TEMPO 4000 BR OVC008

METARs EXPIRÉS :
  • 140400Z AUTO VRB01KT 9999 OVC024 17/15 Q1019 TEMPO 4000 BR OVC008
  • 140330Z AUTO 31002KT 9999 OVC024 18/15 Q1019 TEMPO 4000 BR OVC008
  • 140300Z AUTO VRB02KT 9999 OVC024 18/15 Q1019 TEMPO BKN013
  • 140230Z AUTO 28002KT 9999 OVC025 18/15 Q1019 TEMPO BKN013
  • 140200Z AUTO VRB02KT 9999 OVC025 18/15 Q1019 NOSIG

TAF TAF LFBT
Valide du 14 à 00h jusqu'au 15 à 00h UTC


132300Z 1400/1424 VRB03KT 9999 BKN025
PROB40 1404/1409 BKN013
PROB30 1405/1408 4000 BR OVC008
TEMPO 1415/1418 07010KT



MET'MAP, la Météo Aéronautique d'un coup d'oeil ! - Copyright ORBIFLY Décembre 2007 - Disclaimer

ORBIFLY MET'MAP TEAM :

Programmation & Développement : Alexandra Zaïnal
Sur une idée originale de : Baudouin d'Aumeries
Assistance à la programmation : Marc-Olivier Méhu
Soutien technique & logistique : Manuel Goepfert

Contact : metmap@orbifly.com




SOURCES & CREDITS :

   NOAA